Time;durP1;ratioP1;P1;durP2;ratioP2;P2;SDS_P1;SDS_P2;PMS_P1;PMS_P2;Temp;Humidity;BMP_temperature;BMP_pressure;BME280_temperature;BME280_humidity;BME280_pressure;Samples;Min_cycle;Max_cycle;Signal;HPM_P1;HPM_P2
2023/02/21 02:14:39;;;;;;;51.83;21.60;;;;;;;;;;4976041;28;20230;-82
2023/02/21 02:17:07;;;;;;;51.67;24.23;;;;;;;;;;4974954;28;20180;-79
2023/02/21 02:19:44;;;;;;;47.90;22.33;;;;;;;;;;4976022;28;20165;-80
2023/02/21 02:22:09;;;;;;;49.43;23.27;;;;;;;;;;4979760;28;20184;-80
2023/02/21 02:24:49;;;;;;;51.10;23.47;;;;;;;;;;4977819;28;20200;-79
2023/02/21 02:27:17;;;;;;;47.60;21.20;;;;;;;;;;4995106;28;20179;-80
2023/02/21 02:30:01;;;;;;;48.83;23.63;;;;;;;;;;4979985;28;20193;-79
2023/02/21 02:32:29;;;;;;;57.63;22.17;;;;;;;;;;4976944;28;20264;-80
2023/02/21 02:35:03;;;;;;;52.83;21.80;;;;;;;;;;4972680;28;20177;-79
2023/02/21 02:37:28;;;;;;;55.23;23.93;;;;;;;;;;4971760;28;20166;-82
2023/02/21 02:40:00;;;;;;;53.27;23.77;;;;;;;;;;4968285;28;20195;-80
2023/02/21 02:42:25;;;;;;;52.97;24.50;;;;;;;;;;4975575;28;20563;-79
2023/02/21 02:44:59;;;;;;;55.53;23.17;;;;;;;;;;4975978;28;20191;-79
2023/02/21 02:47:28;;;;;;;55.57;23.13;;;;;;;;;;4971894;28;20569;-79
2023/02/21 02:49:54;;;;;;;51.17;23.67;;;;;;;;;;4974420;28;20250;-80
2023/02/21 02:52:19;;;;;;;49.17;24.17;;;;;;;;;;4976163;28;20177;-79
2023/02/21 02:54:56;;;;;;;53.17;23.87;;;;;;;;;;4992746;28;20174;-79
2023/02/21 02:57:21;;;;;;;55.77;22.77;;;;;;;;;;4971234;28;20176;-82
2023/02/21 02:59:46;;;;;;;50.47;23.00;;;;;;;;;;4966154;28;20183;-81
2023/02/21 03:02:21;;;;;;;55.93;24.73;;;;;;;;;;4965217;28;20235;-81
2023/02/21 03:04:53;;;;;;;55.40;25.37;;;;;;;;;;4972634;28;20180;-81
2023/02/21 03:07:34;;;;;;;50.93;23.57;;;;;;;;;;4989828;28;20184;-80
2023/02/21 03:10:07;;;;;;;48.50;23.97;;;;;;;;;;4971229;28;20200;-80
2023/02/21 03:12:36;;;;;;;60.90;23.53;;;;;;;;;;4960492;28;20177;-81
2023/02/21 03:15:08;;;;;;;65.67;26.17;;;;;;;;;;4968663;28;20173;-81
2023/02/21 03:17:36;;;;;;;53.20;24.70;;;;;;;;;;4965553;28;20303;-81
2023/02/21 03:20:02;;;;;;;61.63;25.20;;;;;;;;;;4965430;28;20183;-81
2023/02/21 03:22:29;;;;;;;53.73;26.53;;;;;;;;;;4971721;28;20562;-80
2023/02/21 03:24:55;;;;;;;50.20;24.40;;;;;;;;;;4970030;28;20223;-81
2023/02/21 03:27:21;;;;;;;55.70;26.47;;;;;;;;;;4986137;28;20192;-80
2023/02/21 03:29:46;;;;;;;53.13;24.77;;;;;;;;;;4971691;28;20274;-80
2023/02/21 03:34:46;;;;;;;51.93;26.50;;;;;;;;;;4969479;28;20189;-80
2023/02/21 03:37:20;;;;;;;57.27;27.23;;;;;;;;;;4968956;28;20185;-80
2023/02/21 03:39:45;;;;;;;47.83;23.50;;;;;;;;;;4967842;28;20188;-81
2023/02/21 03:42:10;;;;;;;57.27;26.50;;;;;;;;;;4971669;28;20202;-81
2023/02/21 03:44:36;;;;;;;61.37;26.80;;;;;;;;;;4969143;28;20204;-80
2023/02/21 03:47:01;;;;;;;57.47;27.63;;;;;;;;;;4965189;28;20239;-81
2023/02/21 03:49:26;;;;;;;57.70;27.47;;;;;;;;;;4973093;28;20591;-82
2023/02/21 03:51:51;;;;;;;59.57;26.80;;;;;;;;;;4974537;28;20180;-81
2023/02/21 03:54:16;;;;;;;59.93;26.40;;;;;;;;;;4971691;28;20207;-80
2023/02/21 03:56:42;;;;;;;57.83;26.47;;;;;;;;;;4963582;28;20176;-80
2023/02/21 03:59:07;;;;;;;62.17;27.87;;;;;;;;;;4970639;28;20191;-80
2023/02/21 04:01:32;;;;;;;61.70;27.33;;;;;;;;;;4964307;28;20192;-79
2023/02/21 04:03:57;;;;;;;54.47;26.20;;;;;;;;;;4972633;28;20204;-80
2023/02/21 04:06:22;;;;;;;54.33;25.30;;;;;;;;;;4972005;28;20195;-81
2023/02/21 04:08:47;;;;;;;54.60;25.57;;;;;;;;;;4973546;28;20802;-81
2023/02/21 04:11:15;;;;;;;57.53;25.27;;;;;;;;;;4967456;28;20561;-81
2023/02/21 04:13:40;;;;;;;63.47;28.07;;;;;;;;;;4974469;28;20207;-79
2023/02/21 04:16:05;;;;;;;58.50;29.57;;;;;;;;;;4982499;28;20187;-77
2023/02/21 04:18:30;;;;;;;60.90;27.67;;;;;;;;;;4982479;28;20161;-80
2023/02/21 04:20:56;;;;;;;68.57;26.87;;;;;;;;;;4986194;28;20180;-77
2023/02/21 04:23:21;;;;;;;59.43;27.70;;;;;;;;;;4975424;28;20195;-77
2023/02/21 04:25:46;;;;;;;77.10;28.40;;;;;;;;;;4971022;28;20193;-80
2023/02/21 04:28:12;;;;;;;64.73;25.93;;;;;;;;;;4972357;28;20180;-79
2023/02/21 04:30:37;;;;;;;64.27;26.73;;;;;;;;;;4980475;28;20227;-80
2023/02/21 04:33:02;;;;;;;70.33;29.00;;;;;;;;;;4978566;28;20232;-80
2023/02/21 04:35:28;;;;;;;66.00;27.03;;;;;;;;;;4969834;28;20181;-79
2023/02/21 04:37:53;;;;;;;66.00;28.23;;;;;;;;;;4969636;28;20217;-79
2023/02/21 04:40:18;;;;;;;68.90;28.57;;;;;;;;;;4978585;28;20192;-80
2023/02/21 04:42:43;;;;;;;63.83;27.97;;;;;;;;;;4974089;28;20289;-79
2023/02/21 04:45:08;;;;;;;79.80;30.20;;;;;;;;;;4972557;28;20208;-79
2023/02/21 04:47:34;;;;;;;65.10;27.57;;;;;;;;;;4981518;28;20184;-77
2023/02/21 04:49:59;;;;;;;69.73;28.73;;;;;;;;;;4974423;28;20647;-79
2023/02/21 04:52:24;;;;;;;73.67;29.40;;;;;;;;;;4973811;28;20271;-79
2023/02/21 04:54:49;;;;;;;68.07;29.13;;;;;;;;;;4983344;28;20182;-78
2023/02/21 04:57:15;;;;;;;72.77;29.97;;;;;;;;;;4972454;28;20666;-79
2023/02/21 04:59:40;;;;;;;70.53;31.03;;;;;;;;;;4973305;28;20242;-79
2023/02/21 05:02:07;;;;;;;66.03;29.10;;;;;;;;;;4971379;28;20525;-79
2023/02/21 05:04:32;;;;;;;75.67;29.00;;;;;;;;;;4971525;28;20208;-79
2023/02/21 05:06:58;;;;;;;61.40;27.40;;;;;;;;;;4983786;28;20219;-79
2023/02/21 05:09:23;;;;;;;63.10;29.13;;;;;;;;;;4980140;28;20288;-79
2023/02/21 05:11:48;;;;;;;65.90;27.33;;;;;;;;;;4971161;28;20706;-79
2023/02/21 05:14:13;;;;;;;69.43;29.00;;;;;;;;;;4969370;28;20231;-79
2023/02/21 05:16:39;;;;;;;68.77;28.33;;;;;;;;;;4972602;28;20264;-79
2023/02/21 05:19:04;;;;;;;68.63;28.43;;;;;;;;;;4969744;28;20260;-79
2023/02/21 05:21:32;;;;;;;72.23;28.20;;;;;;;;;;4984564;28;20189;-78
2023/02/21 05:23:58;;;;;;;74.13;29.77;;;;;;;;;;4971936;28;20226;-79
2023/02/21 05:26:24;;;;;;;85.33;32.50;;;;;;;;;;4982247;28;20233;-79
2023/02/21 05:28:51;;;;;;;74.47;29.43;;;;;;;;;;4972853;28;20173;-79
2023/02/21 05:31:16;;;;;;;78.07;30.03;;;;;;;;;;4969150;28;20680;-80
2023/02/21 05:33:41;;;;;;;71.93;28.40;;;;;;;;;;4980037;28;20254;-79
2023/02/21 05:36:06;;;;;;;82.60;30.97;;;;;;;;;;4983596;28;20260;-80
2023/02/21 05:38:32;;;;;;;68.80;29.73;;;;;;;;;;4980792;28;20188;-79
2023/02/21 05:40:57;;;;;;;80.20;32.63;;;;;;;;;;4974486;28;20643;-79
2023/02/21 05:43:22;;;;;;;82.13;30.40;;;;;;;;;;4981124;28;20212;-80
2023/02/21 05:45:47;;;;;;;73.77;31.40;;;;;;;;;;4975766;28;20677;-79
2023/02/21 05:48:13;;;;;;;79.50;32.03;;;;;;;;;;4977666;28;20172;-79
2023/02/21 05:50:38;;;;;;;80.07;31.90;;;;;;;;;;4983332;28;20701;-78
2023/02/21 05:53:04;;;;;;;81.13;32.10;;;;;;;;;;4978922;28;20316;-79
2023/02/21 05:55:29;;;;;;;87.83;32.83;;;;;;;;;;4983649;28;20178;-79
2023/02/21 05:57:54;;;;;;;90.73;31.90;;;;;;;;;;4980592;28;20176;-79
2023/02/21 06:00:22;;;;;;;86.63;30.97;;;;;;;;;;4980766;28;20180;-79
2023/02/21 06:02:48;;;;;;;78.13;31.93;;;;;;;;;;4971564;28;20203;-79
2023/02/21 06:05:13;;;;;;;80.63;31.83;;;;;;;;;;4973380;28;20568;-79
2023/02/21 06:07:38;;;;;;;83.60;32.97;;;;;;;;;;4982496;28;20176;-78
2023/02/21 06:10:04;;;;;;;86.23;33.47;;;;;;;;;;4979861;28;20206;-79
2023/02/21 06:12:29;;;;;;;78.63;31.90;;;;;;;;;;4976496;28;20176;-79
2023/02/21 06:14:54;;;;;;;86.80;31.07;;;;;;;;;;4977253;28;20176;-79
2023/02/21 06:17:19;;;;;;;85.07;33.03;;;;;;;;;;4980758;28;20177;-78
2023/02/21 06:19:45;;;;;;;86.60;33.33;;;;;;;;;;4979728;28;20215;-79
2023/02/21 06:22:10;;;;;;;89.90;34.77;;;;;;;;;;4979691;28;20630;-79
2023/02/21 06:24:35;;;;;;;83.33;34.93;;;;;;;;;;4979556;28;20476;-78
2023/02/21 06:27:00;;;;;;;84.70;32.40;;;;;;;;;;4973513;28;20180;-78
2023/02/21 06:29:26;;;;;;;90.20;32.77;;;;;;;;;;4973871;28;20200;-79
2023/02/21 06:31:55;;;;;;;82.57;32.53;;;;;;;;;;4983393;28;20208;-78
2023/02/21 06:34:20;;;;;;;81.83;35.63;;;;;;;;;;4981104;28;20184;-79
2023/02/21 06:36:49;;;;;;;89.70;34.50;;;;;;;;;;4982217;28;20712;-79
2023/02/21 06:39:15;;;;;;;74.90;29.87;;;;;;;;;;4973880;28;20188;-80
2023/02/21 06:41:40;;;;;;;84.10;34.30;;;;;;;;;;4978657;28;20183;-79
2023/02/21 06:44:05;;;;;;;89.33;34.77;;;;;;;;;;4979136;28;20574;-79
2023/02/21 06:46:30;;;;;;;80.67;33.17;;;;;;;;;;4985690;28;20172;-78
2023/02/21 06:48:56;;;;;;;97.93;35.57;;;;;;;;;;4985836;28;20180;-77
2023/02/21 06:51:27;;;;;;;84.67;36.33;;;;;;;;;;4983275;28;20184;-79
2023/02/21 06:53:53;;;;;;;84.97;34.63;;;;;;;;;;4976427;28;20280;-79
2023/02/21 06:56:18;;;;;;;81.93;34.87;;;;;;;;;;4975386;28;20675;-77
2023/02/21 06:58:43;;;;;;;90.40;34.33;;;;;;;;;;4973452;28;20714;-77
2023/02/21 07:01:08;;;;;;;81.10;34.00;;;;;;;;;;4975407;28;20251;-79
2023/02/21 07:03:37;;;;;;;74.93;33.43;;;;;;;;;;4976200;28;20212;-78
2023/02/21 07:06:02;;;;;;;81.23;32.70;;;;;;;;;;4987873;28;20173;-77
2023/02/21 07:08:27;;;;;;;81.90;33.30;;;;;;;;;;4983129;28;20252;-78
2023/02/21 07:10:53;;;;;;;84.03;34.27;;;;;;;;;;4986710;28;20204;-78
2023/02/21 07:13:18;;;;;;;78.37;33.50;;;;;;;;;;4988563;28;20223;-78
2023/02/21 07:15:43;;;;;;;92.13;35.30;;;;;;;;;;4984244;28;20172;-81
2023/02/21 07:18:08;;;;;;;85.80;34.87;;;;;;;;;;4978194;28;20180;-79
2023/02/21 07:20:34;;;;;;;89.17;33.87;;;;;;;;;;4981725;28;20180;-79
2023/02/21 07:22:59;;;;;;;82.83;34.07;;;;;;;;;;4981900;28;20204;-80
2023/02/21 07:25:24;;;;;;;92.00;36.17;;;;;;;;;;4983217;28;20218;-79
2023/02/21 07:27:51;;;;;;;98.37;35.20;;;;;;;;;;4984824;28;20244;-77
2023/02/21 07:30:17;;;;;;;94.33;34.20;;;;;;;;;;4978273;28;20690;-77
2023/02/21 07:32:42;;;;;;;88.17;34.13;;;;;;;;;;4970531;28;20207;-79
2023/02/21 07:35:07;;;;;;;91.60;35.50;;;;;;;;;;4965425;28;20169;-78
2023/02/21 07:37:32;;;;;;;81.50;32.43;;;;;;;;;;4973613;28;20181;-79
2023/02/21 07:39:58;;;;;;;90.00;33.47;;;;;;;;;;4969757;28;20558;-78
2023/02/21 07:42:23;;;;;;;81.23;33.77;;;;;;;;;;4985625;28;20184;-78
2023/02/21 07:44:53;;;;;;;86.60;33.77;;;;;;;;;;4986006;28;20200;-79
2023/02/21 07:47:18;;;;;;;91.57;34.90;;;;;;;;;;4984262;28;20152;-77
2023/02/21 07:49:43;;;;;;;82.73;32.07;;;;;;;;;;4983833;28;20231;-78
2023/02/21 07:52:09;;;;;;;92.07;35.07;;;;;;;;;;4974510;28;20188;-78
2023/02/21 07:54:35;;;;;;;84.07;33.20;;;;;;;;;;4981147;28;20204;-78
2023/02/21 07:57:00;;;;;;;73.80;32.80;;;;;;;;;;4984406;28;20200;-77
2023/02/21 07:59:25;;;;;;;85.67;32.60;;;;;;;;;;4983636;28;20521;-77
2023/02/21 08:01:50;;;;;;;88.60;34.37;;;;;;;;;;4978633;28;20184;-77
2023/02/21 08:04:19;;;;;;;96.57;32.50;;;;;;;;;;4977684;28;20196;-77
2023/02/21 08:06:45;;;;;;;82.93;32.40;;;;;;;;;;4977106;28;20188;-80
2023/02/21 08:09:10;;;;;;;86.10;33.07;;;;;;;;;;4967932;28;20173;-77
2023/02/21 08:11:35;;;;;;;82.17;30.63;;;;;;;;;;4969399;28;20264;-77
2023/02/21 08:14:01;;;;;;;83.40;32.13;;;;;;;;;;4979607;28;20207;-77
2023/02/21 08:16:27;;;;;;;76.37;30.97;;;;;;;;;;4980217;28;20176;-77
2023/02/21 08:18:52;;;;;;;85.13;31.90;;;;;;;;;;4982791;28;20184;-79
2023/02/21 08:21:17;;;;;;;79.40;32.00;;;;;;;;;;4980115;28;20187;-79
2023/02/21 08:23:42;;;;;;;96.60;34.53;;;;;;;;;;4981037;28;20286;-79
2023/02/21 08:26:07;;;;;;;82.70;32.57;;;;;;;;;;4980908;28;20227;-77
2023/02/21 08:28:33;;;;;;;89.77;34.07;;;;;;;;;;4994689;28;20168;-77
2023/02/21 08:30:58;;;;;;;87.13;34.53;;;;;;;;;;4990851;28;20204;-79
2023/02/21 08:33:23;;;;;;;81.97;32.93;;;;;;;;;;4978923;28;20227;-79
2023/02/21 08:35:48;;;;;;;86.23;31.10;;;;;;;;;;4974959;28;20553;-79
2023/02/21 08:38:14;;;;;;;75.03;30.90;;;;;;;;;;4980435;28;20191;-79
2023/02/21 08:40:39;;;;;;;87.23;32.77;;;;;;;;;;4969316;28;20172;-77
2023/02/21 08:43:04;;;;;;;87.40;33.00;;;;;;;;;;4978823;28;20216;-79
2023/02/21 08:45:30;;;;;;;87.27;33.67;;;;;;;;;;4983986;28;20176;-79
2023/02/21 08:47:56;;;;;;;82.40;30.13;;;;;;;;;;4983752;28;20181;-78
2023/02/21 08:50:22;;;;;;;73.40;31.77;;;;;;;;;;4980861;28;20641;-80
2023/02/21 08:52:48;;;;;;;96.40;30.37;;;;;;;;;;4984175;28;20372;-80
2023/02/21 08:55:13;;;;;;;85.83;33.53;;;;;;;;;;4970750;28;20672;-79
2023/02/21 08:57:39;;;;;;;85.10;30.87;;;;;;;;;;4973589;28;20164;-79
2023/02/21 09:00:05;;;;;;;94.50;31.53;;;;;;;;;;4983989;28;20184;-79
2023/02/21 09:02:31;;;;;;;78.13;29.63;;;;;;;;;;4976356;28;20188;-79
2023/02/21 09:04:57;;;;;;;80.47;29.93;;;;;;;;;;4973634;28;20185;-80
2023/02/21 09:07:22;;;;;;;67.00;28.80;;;;;;;;;;4983254;28;20184;-79
2023/02/21 09:09:47;;;;;;;70.27;27.63;;;;;;;;;;4976520;28;20208;-79
2023/02/21 09:12:12;;;;;;;76.47;28.77;;;;;;;;;;4975765;28;20641;-79
2023/02/21 09:14:39;;;;;;;69.90;29.17;;;;;;;;;;4979479;28;20209;-78
2023/02/21 09:17:05;;;;;;;72.83;27.17;;;;;;;;;;4980164;28;20340;-79
2023/02/21 09:19:30;;;;;;;75.37;30.70;;;;;;;;;;4982664;28;20259;-79
2023/02/21 09:21:56;;;;;;;83.63;28.60;;;;;;;;;;4981035;28;20220;-77
2023/02/21 09:24:24;;;;;;;76.17;28.97;;;;;;;;;;4966903;28;20247;-77
2023/02/21 09:26:53;;;;;;;86.00;32.40;;;;;;;;;;4970250;28;20173;-79
2023/02/21 09:29:19;;;;;;;81.07;30.13;;;;;;;;;;4977437;28;20183;-78
2023/02/21 09:31:44;;;;;;;94.07;31.17;;;;;;;;;;4968825;28;20250;-81
2023/02/21 09:34:09;;;;;;;70.50;28.67;;;;;;;;;;4967567;28;20193;-78
2023/02/21 09:36:35;;;;;;;75.00;29.63;;;;;;;;;;4972404;28;20191;-79
2023/02/21 09:39:05;;;;;;;69.53;28.30;;;;;;;;;;4970428;28;20655;-79
2023/02/21 09:41:30;;;;;;;71.07;26.70;;;;;;;;;;4976765;28;20230;-79
2023/02/21 09:43:55;;;;;;;75.93;27.97;;;;;;;;;;4960353;28;20758;-79
2023/02/21 09:46:33;;;;;;;81.73;30.10;;;;;;;;;;4975237;28;20180;-81
2023/02/21 09:48:59;;;;;;;69.93;27.73;;;;;;;;;;4971272;28;20189;-81
2023/02/21 09:51:25;;;;;;;76.67;29.47;;;;;;;;;;4977964;28;20192;-81
2023/02/21 09:53:52;;;;;;;72.13;29.07;;;;;;;;;;4975531;28;20697;-81
2023/02/21 09:56:18;;;;;;;74.47;28.33;;;;;;;;;;4969881;28;20647;-81
2023/02/21 09:58:43;;;;;;;80.73;29.83;;;;;;;;;;4967272;28;20184;-81
2023/02/21 10:01:19;;;;;;;80.47;30.90;;;;;;;;;;4974939;28;20180;-79
2023/02/21 10:03:55;;;;;;;76.40;30.50;;;;;;;;;;4977086;28;20207;-79
2023/02/21 10:06:33;;;;;;;70.77;27.13;;;;;;;;;;4974370;28;20180;-81
2023/02/21 10:09:01;;;;;;;70.27;28.00;;;;;;;;;;4976389;28;20180;-82
2023/02/21 10:11:34;;;;;;;70.47;27.63;;;;;;;;;;4967851;28;20184;-81
2023/02/21 10:14:02;;;;;;;73.07;28.30;;;;;;;;;;4975553;23;20730;-72
2023/02/21 10:16:33;;;;;;;74.10;27.73;;;;;;;;;;4961360;28;20243;-71
2023/02/21 10:19:14;;;;;;;71.80;27.07;;;;;;;;;;4930399;28;20712;-71
2023/02/21 10:21:41;;;;;;;62.63;25.17;;;;;;;;;;4949180;28;20554;-72
2023/02/21 10:24:23;;;;;;;63.33;25.87;;;;;;;;;;4951745;28;20304;-71
2023/02/21 10:27:07;;;;;;;74.27;27.30;;;;;;;;;;4950382;28;20651;-71
2023/02/21 10:29:35;;;;;;;70.90;27.10;;;;;;;;;;4948251;28;20657;-72
2023/02/21 10:32:02;;;;;;;80.77;30.17;;;;;;;;;;4949004;28;20824;-71
2023/02/21 10:34:29;;;;;;;74.07;27.43;;;;;;;;;;4952891;28;20185;-72
2023/02/21 10:36:55;;;;;;;68.40;27.30;;;;;;;;;;4939983;28;20647;-71
2023/02/21 10:39:41;;;;;;;81.30;29.63;;;;;;;;;;4933218;28;20188;-71
2023/02/21 10:42:11;;;;;;;76.70;28.33;;;;;;;;;;4949531;28;20181;-71
2023/02/21 10:44:36;;;;;;;70.47;28.40;;;;;;;;;;4951080;28;20279;-71
2023/02/21 10:47:08;;;;;;;72.07;26.30;;;;;;;;;;4948192;28;20648;-71
2023/02/21 10:49:35;;;;;;;68.67;26.70;;;;;;;;;;4949523;28;20671;-71
2023/02/21 10:52:11;;;;;;;67.13;28.20;;;;;;;;;;4946348;28;20189;-70
2023/02/21 10:54:37;;;;;;;70.07;28.40;;;;;;;;;;4950792;28;20204;-70
2023/02/21 10:57:04;;;;;;;83.83;29.70;;;;;;;;;;4943991;28;20670;-71
2023/02/21 10:59:33;;;;;;;77.10;28.43;;;;;;;;;;4949691;28;20184;-71
2023/02/21 11:02:00;;;;;;;74.63;30.17;;;;;;;;;;4951263;28;20190;-71
2023/02/21 11:04:26;;;;;;;71.20;28.40;;;;;;;;;;4948255;28;20304;-71
2023/02/21 11:06:56;;;;;;;71.73;28.97;;;;;;;;;;4949322;28;20199;-72
2023/02/21 11:09:21;;;;;;;70.47;28.43;;;;;;;;;;4947047;28;20243;-70
2023/02/21 11:11:47;;;;;;;68.60;29.97;;;;;;;;;;4953603;28;20177;-71
2023/02/21 11:14:18;;;;;;;72.37;26.23;;;;;;;;;;4951311;28;20209;-71
2023/02/21 11:16:43;;;;;;;68.80;25.90;;;;;;;;;;4946145;29;20170;-71
2023/02/21 11:19:11;;;;;;;67.57;29.07;;;;;;;;;;4952564;28;20599;-71
2023/02/21 11:21:36;;;;;;;69.60;26.93;;;;;;;;;;4950208;28;20182;-70
2023/02/21 11:24:03;;;;;;;66.87;27.07;;;;;;;;;;4950335;28;20209;-72
2023/02/21 11:26:46;;;;;;;64.77;23.20;;;;;;;;;;4945957;28;20169;-71
2023/02/21 11:29:17;;;;;;;76.07;26.13;;;;;;;;;;4951121;28;20185;-71
2023/02/21 11:31:43;;;;;;;64.80;26.00;;;;;;;;;;4946730;29;20184;-70
2023/02/21 11:34:10;;;;;;;60.63;23.37;;;;;;;;;;4953986;28;20468;-71
2023/02/21 11:36:38;;;;;;;55.93;23.03;;;;;;;;;;4950541;29;20231;-71
2023/02/21 11:39:09;;;;;;;55.33;24.07;;;;;;;;;;4948014;28;20188;-70
2023/02/21 11:41:50;;;;;;;48.93;22.30;;;;;;;;;;4948481;28;20173;-71
2023/02/21 11:44:36;;;;;;;44.67;21.03;;;;;;;;;;4953723;28;20192;-71
2023/02/21 11:47:03;;;;;;;42.97;19.37;;;;;;;;;;4952944;28;20177;-69
2023/02/21 11:49:31;;;;;;;46.33;19.43;;;;;;;;;;4952129;28;20760;-70
2023/02/21 11:52:01;;;;;;;38.20;17.37;;;;;;;;;;4953357;28;20185;-71
2023/02/21 11:54:29;;;;;;;30.83;15.33;;;;;;;;;;4948931;28;20207;-70
2023/02/21 11:56:54;;;;;;;37.53;17.10;;;;;;;;;;4948708;28;20179;-69
2023/02/21 11:59:39;;;;;;;34.33;14.83;;;;;;;;;;4953027;28;20259;-71
2023/02/21 12:02:11;;;;;;;27.50;13.43;;;;;;;;;;4951046;28;20248;-69
2023/02/21 12:04:36;;;;;;;30.57;13.27;;;;;;;;;;4953381;28;20284;-70
2023/02/21 12:07:04;;;;;;;24.53;12.90;;;;;;;;;;4950976;28;20260;-69
2023/02/21 12:09:44;;;;;;;29.60;13.37;;;;;;;;;;4951412;28;20228;-70
2023/02/21 12:12:15;;;;;;;24.03;10.70;;;;;;;;;;4952144;28;20257;-70
2023/02/21 12:15:00;;;;;;;21.93;11.70;;;;;;;;;;4953408;28;20213;-70
2023/02/21 12:17:28;;;;;;;21.00;11.90;;;;;;;;;;4933229;28;20188;-71
2023/02/21 12:20:12;;;;;;;18.37;10.07;;;;;;;;;;4932773;28;20184;-70
2023/02/21 12:22:55;;;;;;;17.73;9.37;;;;;;;;;;4950878;28;20201;-71
2023/02/21 12:25:26;;;;;;;18.27;8.57;;;;;;;;;;4946569;28;20234;-70
2023/02/21 12:28:10;;;;;;;19.13;9.57;;;;;;;;;;4951045;28;20223;-70
2023/02/21 12:30:46;;;;;;;17.93;10.17;;;;;;;;;;4946851;28;20248;-71
2023/02/21 12:33:14;;;;;;;19.20;10.37;;;;;;;;;;4945963;28;20207;-71
2023/02/21 12:35:40;;;;;;;16.97;8.90;;;;;;;;;;4953335;28;20169;-70
2023/02/21 12:38:20;;;;;;;20.13;10.17;;;;;;;;;;4943630;28;20267;-71
2023/02/21 12:41:02;;;;;;;17.67;9.47;;;;;;;;;;4948709;28;20667;-71
2023/02/21 12:43:27;;;;;;;16.17;9.47;;;;;;;;;;4950005;28;20263;-71
2023/02/21 12:45:52;;;;;;;17.57;9.13;;;;;;;;;;4952068;28;20185;-70
2023/02/21 12:48:32;;;;;;;17.93;9.87;;;;;;;;;;4942551;28;20690;-71
2023/02/21 12:51:02;;;;;;;17.60;8.67;;;;;;;;;;4945123;28;20251;-70
2023/02/21 12:53:31;;;;;;;14.60;8.67;;;;;;;;;;4948749;28;20627;-71
2023/02/21 12:55:59;;;;;;;16.90;8.53;;;;;;;;;;4951296;28;20209;-70
2023/02/21 12:58:25;;;;;;;15.07;9.17;;;;;;;;;;4943377;28;21809;-70
2023/02/21 13:00:56;;;;;;;16.27;9.07;;;;;;;;;;4950378;28;20715;-70
2023/02/21 13:03:24;;;;;;;16.87;8.67;;;;;;;;;;4949183;28;20285;-71
2023/02/21 13:05:51;;;;;;;13.17;7.97;;;;;;;;;;4944475;28;20182;-70
2023/02/21 13:08:20;;;;;;;14.60;7.97;;;;;;;;;;4950475;28;20273;-71
2023/02/21 13:10:51;;;;;;;15.00;8.40;;;;;;;;;;4953678;28;20264;-71
2023/02/21 13:13:19;;;;;;;14.00;7.80;;;;;;;;;;4954223;28;20588;-70
2023/02/21 13:15:47;;;;;;;14.73;8.63;;;;;;;;;;4952468;28;20659;-70
2023/02/21 13:18:35;;;;;;;14.43;9.00;;;;;;;;;;4955036;28;20181;-70
2023/02/21 13:21:07;;;;;;;13.63;8.83;;;;;;;;;;4963649;28;20640;-70
2023/02/21 13:23:33;;;;;;;14.83;8.40;;;;;;;;;;4954765;28;20201;-71
2023/02/21 13:26:18;;;;;;;13.70;8.80;;;;;;;;;;4955119;28;20197;-70
2023/02/21 13:28:44;;;;;;;13.70;8.13;;;;;;;;;;4954743;28;20180;-71
2023/02/21 13:31:17;;;;;;;15.37;8.77;;;;;;;;;;4957548;28;20296;-70
2023/02/21 13:33:54;;;;;;;14.97;8.77;;;;;;;;;;4953646;28;20211;-70
2023/02/21 13:36:28;;;;;;;14.77;8.40;;;;;;;;;;4951161;28;20849;-70
2023/02/21 13:39:00;;;;;;;15.83;8.33;;;;;;;;;;4958968;28;20511;-71
2023/02/21 13:41:27;;;;;;;15.47;8.77;;;;;;;;;;4951512;28;20183;-71
2023/02/21 13:43:53;;;;;;;14.03;8.20;;;;;;;;;;4955104;28;20232;-71
2023/02/21 13:46:22;;;;;;;14.77;8.47;;;;;;;;;;4952473;28;20213;-70
2023/02/21 13:49:07;;;;;;;11.93;7.47;;;;;;;;;;4954798;28;20188;-71
2023/02/21 13:51:51;;;;;;;16.17;8.83;;;;;;;;;;4953416;28;20236;-71
2023/02/21 13:54:21;;;;;;;16.13;8.33;;;;;;;;;;4954351;28;20204;-71
2023/02/21 13:56:47;;;;;;;15.20;8.77;;;;;;;;;;4954864;28;20193;-70
2023/02/21 13:59:32;;;;;;;11.23;6.97;;;;;;;;;;4954373;28;20189;-71
2023/02/21 14:02:15;;;;;;;10.67;6.17;;;;;;;;;;4950577;28;20886;-71
2023/02/21 14:04:46;;;;;;;12.97;6.53;;;;;;;;;;4952273;28;20204;-71
2023/02/21 14:07:11;;;;;;;12.93;7.20;;;;;;;;;;4950559;28;20182;-70
2023/02/21 14:09:39;;;;;;;12.17;6.30;;;;;;;;;;4953591;28;20303;-71
2023/02/21 14:12:05;;;;;;;12.20;7.23;;;;;;;;;;4952587;28;20181;-71
2023/02/21 14:14:33;;;;;;;10.47;6.53;;;;;;;;;;4953316;28;20263;-70
2023/02/21 14:17:03;;;;;;;9.83;6.00;;;;;;;;;;4954142;28;20192;-71
2023/02/21 14:19:37;;;;;;;9.97;5.97;;;;;;;;;;4954541;28;20185;-71
2023/02/21 14:22:15;;;;;;;9.57;5.93;;;;;;;;;;4956583;28;20177;-70
2023/02/21 14:24:47;;;;;;;11.13;6.80;;;;;;;;;;4954353;28;20193;-71
2023/02/21 14:27:12;;;;;;;9.60;5.70;;;;;;;;;;4954437;28;20181;-71
2023/02/21 14:29:39;;;;;;;9.87;5.97;;;;;;;;;;4951466;28;20208;-71
2023/02/21 14:32:07;;;;;;;12.57;7.73;;;;;;;;;;4952642;28;20181;-70
2023/02/21 14:34:36;;;;;;;11.43;6.30;;;;;;;;;;4957477;28;20204;-71
2023/02/21 14:37:20;;;;;;;10.53;6.37;;;;;;;;;;4957038;28;20194;-71
2023/02/21 14:39:47;;;;;;;10.90;6.10;;;;;;;;;;4954416;28;20240;-70
2023/02/21 14:42:30;;;;;;;11.23;6.17;;;;;;;;;;4953979;28;20211;-71
2023/02/21 14:45:11;;;;;;;9.13;5.80;;;;;;;;;;4951832;28;20308;-70
2023/02/21 14:47:51;;;;;;;11.57;5.47;;;;;;;;;;4953853;28;20204;-70
2023/02/21 14:50:19;;;;;;;12.37;6.40;;;;;;;;;;4952937;28;20200;-71
2023/02/21 14:52:44;;;;;;;12.67;6.97;;;;;;;;;;4946278;28;20251;-70
2023/02/21 14:55:20;;;;;;;15.23;7.47;;;;;;;;;;4960125;28;20214;-71
2023/02/21 14:57:46;;;;;;;12.43;7.67;;;;;;;;;;4948758;29;20181;-70
2023/02/21 15:00:14;;;;;;;10.60;6.73;;;;;;;;;;4949509;28;20819;-71
2023/02/21 15:02:57;;;;;;;11.43;6.33;;;;;;;;;;4946387;28;20173;-71
2023/02/21 15:05:32;;;;;;;10.47;6.80;;;;;;;;;;4958662;28;20177;-71
2023/02/21 15:08:13;;;;;;;12.20;7.27;;;;;;;;;;4963151;28;20220;-71
2023/02/21 15:10:39;;;;;;;14.17;8.23;;;;;;;;;;4949247;28;20265;-70
2023/02/21 15:13:04;;;;;;;13.30;6.60;;;;;;;;;;4958631;28;20291;-71
2023/02/21 15:15:40;;;;;;;15.07;7.90;;;;;;;;;;4960640;28;20308;-71
2023/02/21 15:18:10;;;;;;;13.63;8.13;;;;;;;;;;4953128;28;20685;-71
2023/02/21 15:20:37;;;;;;;12.80;7.37;;;;;;;;;;4956375;28;20733;-69
2023/02/21 15:23:08;;;;;;;13.20;7.30;;;;;;;;;;4953904;28;20201;-70
2023/02/21 15:25:33;;;;;;;13.80;7.43;;;;;;;;;;4956626;28;20177;-72
2023/02/21 15:27:59;;;;;;;14.33;7.20;;;;;;;;;;4958166;28;20176;-72
2023/02/21 15:30:24;;;;;;;12.37;6.70;;;;;;;;;;4946853;28;20212;-70
2023/02/21 15:32:57;;;;;;;12.03;6.80;;;;;;;;;;4955533;28;20181;-73
2023/02/21 15:35:25;;;;;;;14.70;7.60;;;;;;;;;;4953333;28;20181;-72
2023/02/21 15:37:50;;;;;;;13.17;7.00;;;;;;;;;;4954052;28;20191;-73
2023/02/21 15:40:18;;;;;;;13.17;7.50;;;;;;;;;;4950487;28;20632;-72
2023/02/21 15:42:44;;;;;;;13.00;6.83;;;;;;;;;;4951573;28;20183;-72
2023/02/21 15:45:14;;;;;;;13.90;8.77;;;;;;;;;;4951222;28;20189;-72
2023/02/21 15:47:40;;;;;;;13.20;7.33;;;;;;;;;;4951740;28;20189;-72
2023/02/21 15:50:10;;;;;;;13.70;8.00;;;;;;;;;;4958861;28;20224;-72
2023/02/21 15:52:38;;;;;;;12.77;7.37;;;;;;;;;;4956578;28;20176;-72
2023/02/21 15:55:19;;;;;;;13.13;7.80;;;;;;;;;;4952930;28;20227;-73
2023/02/21 15:58:02;;;;;;;15.90;8.37;;;;;;;;;;4956497;28;20168;-73
2023/02/21 16:00:32;;;;;;;14.70;8.47;;;;;;;;;;4954021;28;20191;-73
2023/02/21 16:03:16;;;;;;;14.37;7.73;;;;;;;;;;4947466;28;20239;-71
2023/02/21 16:05:41;;;;;;;15.23;7.97;;;;;;;;;;4952386;28;20205;-72
2023/02/21 16:08:10;;;;;;;18.73;8.17;;;;;;;;;;4955151;28;20219;-72
2023/02/21 16:10:36;;;;;;;15.30;8.20;;;;;;;;;;4953095;28;20682;-73
2023/02/21 16:13:01;;;;;;;16.93;8.53;;;;;;;;;;4948443;28;20232;-71
2023/02/21 16:15:28;;;;;;;15.70;8.70;;;;;;;;;;4951329;28;20220;-72
2023/02/21 16:17:57;;;;;;;17.50;9.07;;;;;;;;;;4954798;28;20189;-72
2023/02/21 16:20:27;;;;;;;15.60;7.90;;;;;;;;;;4951086;28;20192;-72
2023/02/21 16:23:12;;;;;;;14.33;7.43;;;;;;;;;;4951050;28;20188;-72
2023/02/21 16:26:16;;;;;;;16.10;8.90;;;;;;;;;;4947553;28;20184;-72
2023/02/21 16:28:42;;;;;;;15.27;8.20;;;;;;;;;;4965915;28;20247;-73
2023/02/21 16:31:11;;;;;;;17.13;8.57;;;;;;;;;;4968597;28;20227;-72
2023/02/21 16:33:36;;;;;;;17.43;7.90;;;;;;;;;;4960484;28;20209;-72
2023/02/21 16:36:06;;;;;;;15.57;8.00;;;;;;;;;;4955966;28;20186;-72
2023/02/21 16:38:31;;;;;;;13.73;7.93;;;;;;;;;;4957651;28;20180;-73
2023/02/21 16:40:56;;;;;;;16.07;7.17;;;;;;;;;;4961201;28;20683;-72
2023/02/21 16:43:23;;;;;;;14.07;7.50;;;;;;;;;;4957478;28;20215;-73
2023/02/21 16:45:50;;;;;;;15.27;7.40;;;;;;;;;;4956375;28;20551;-72